Главная страница
METAR-TAF:

METAR-TAF

Аэропорты :

Крайова, Румыния

широта: 44-14N, долгота: 023-52E, высота над уровнем моря: 192 м

Текущие метеонаблюдения

Эта сводка был подготовлена 32 минут назад, в 21:30 UTC
Ветер 1 Узел переменных направлений
Температура 19°C
Влажность 88%
Давление 1010 hPa
Видимость 10 км и более
Нет облачности ниже 1500 м, и нет кучево-дождевой облачности

METAR: LRCV 172130Z VRB01KT CAVOK 19/17 Q1010

Время: 01:02 (22:02 UTC)

Прогноз

Эта сводка был подготовлена 2 часа и 2 минут назад, в 20:00 UTC
Прогноз действительный с 17-го 21 UTC до 18-го 06 UTC
Ветер 10 Узел от северный
Видимость 10 км и более
Отдельные облака на высоте 4500 фута
Вероятность 30% :
временами
С 18-го 02 UTC до 18-го 06 UTC
Видимость: 5000 м
Отдельные облака на высоте 4500 фута, Кучево-дождевые.
гроза, небольшой дождь

TAF: LRCV 172000Z 1721/1806 35010KT 9999 SCT045 PROB30 TEMPO 1802/1806 5000 -TSRA SCT045CB

Метеонаблюдения и прогнозы для более 4000 аэропортов (сводки METAR и TAF).

Имеющиеся станции представлены на карте желтыми и красными точками.

Чтобы увидеть название станции, наведите на нее мышь.

Затем щелкните, чтобы увидеть метеонаблюдения и метеопрогнозы.

Управление картой: чтобы увеличить масштаб, щелкните зеленые кнопки с черным крестиком; чтобы уменьшить масштаб, щелкните зеленую кнопку с тире; для просмотра соседних карт щелкайте зеленые стрелки.


METAR-TAF: